sensor_id;sensor_type;location;lat;lon;timestamp;temperature;humidity
15959;DHT22;8078;47.822;9.402;2023-06-04T00:01:50;13.00;99.90
15959;DHT22;8078;47.822;9.402;2023-06-04T00:04:16;13.00;99.90
15959;DHT22;8078;47.822;9.402;2023-06-04T00:06:42;12.90;99.00
15959;DHT22;8078;47.822;9.402;2023-06-04T00:09:07;12.90;98.30
15959;DHT22;8078;47.822;9.402;2023-06-04T00:11:33;12.90;99.10
15959;DHT22;8078;47.822;9.402;2023-06-04T00:14:00;12.90;98.20
15959;DHT22;8078;47.822;9.402;2023-06-04T00:16:26;12.80;99.10
15959;DHT22;8078;47.822;9.402;2023-06-04T00:18:52;12.80;97.60
15959;DHT22;8078;47.822;9.402;2023-06-04T00:21:17;12.70;97.90
15959;DHT22;8078;47.822;9.402;2023-06-04T00:23:43;12.60;97.80
15959;DHT22;8078;47.822;9.402;2023-06-04T00:26:08;12.60;96.90
15959;DHT22;8078;47.822;9.402;2023-06-04T00:28:34;12.50;98.30
15959;DHT22;8078;47.822;9.402;2023-06-04T00:30:59;12.40;96.00
15959;DHT22;8078;47.822;9.402;2023-06-04T00:33:25;12.40;96.80
15959;DHT22;8078;47.822;9.402;2023-06-04T00:35:50;12.50;96.10
15959;DHT22;8078;47.822;9.402;2023-06-04T00:38:16;12.40;95.40
15959;DHT22;8078;47.822;9.402;2023-06-04T00:40:42;12.30;94.80
15959;DHT22;8078;47.822;9.402;2023-06-04T00:43:07;12.20;92.90
15959;DHT22;8078;47.822;9.402;2023-06-04T00:45:33;12.20;95.70
15959;DHT22;8078;47.822;9.402;2023-06-04T00:47:59;12.10;95.40
15959;DHT22;8078;47.822;9.402;2023-06-04T00:50:25;12.10;96.10
15959;DHT22;8078;47.822;9.402;2023-06-04T00:52:51;12.00;95.20
15959;DHT22;8078;47.822;9.402;2023-06-04T00:55:17;12.10;95.60
15959;DHT22;8078;47.822;9.402;2023-06-04T00:57:44;12.10;95.90
15959;DHT22;8078;47.822;9.402;2023-06-04T01:00:10;12.20;94.70
15959;DHT22;8078;47.822;9.402;2023-06-04T01:02:37;12.30;92.90
15959;DHT22;8078;47.822;9.402;2023-06-04T01:07:44;12.30;93.70
15959;DHT22;8078;47.822;9.402;2023-06-04T01:10:12;12.20;92.90
15959;DHT22;8078;47.822;9.402;2023-06-04T01:12:44;12.30;94.40
15959;DHT22;8078;47.822;9.402;2023-06-04T01:15:10;12.20;92.20
15959;DHT22;8078;47.822;9.402;2023-06-04T01:17:42;12.10;90.60
15959;DHT22;8078;47.822;9.402;2023-06-04T01:23:34;12.00;92.20
15959;DHT22;8078;47.822;9.402;2023-06-04T01:26:04;11.90;89.30
15959;DHT22;8078;47.822;9.402;2023-06-04T01:28:33;11.70;90.90
15959;DHT22;8078;47.822;9.402;2023-06-04T01:31:00;11.70;91.40
15959;DHT22;8078;47.822;9.402;2023-06-04T01:33:27;11.70;93.10
15959;DHT22;8078;47.822;9.402;2023-06-04T01:35:53;11.60;92.60
15959;DHT22;8078;47.822;9.402;2023-06-04T01:38:19;11.60;92.40
15959;DHT22;8078;47.822;9.402;2023-06-04T01:40:45;11.60;92.00
15959;DHT22;8078;47.822;9.402;2023-06-04T01:43:11;11.60;92.30
15959;DHT22;8078;47.822;9.402;2023-06-04T01:45:36;11.60;92.40
15959;DHT22;8078;47.822;9.402;2023-06-04T01:48:03;11.60;90.70
15959;DHT22;8078;47.822;9.402;2023-06-04T01:50:29;11.60;92.50
15959;DHT22;8078;47.822;9.402;2023-06-04T01:52:56;11.60;92.20
15959;DHT22;8078;47.822;9.402;2023-06-04T01:55:22;11.60;92.50
15959;DHT22;8078;47.822;9.402;2023-06-04T01:57:51;11.60;91.50
15959;DHT22;8078;47.822;9.402;2023-06-04T02:00:17;11.60;93.90
15959;DHT22;8078;47.822;9.402;2023-06-04T02:02:44;11.60;90.70
15959;DHT22;8078;47.822;9.402;2023-06-04T02:05:16;11.60;93.00
15959;DHT22;8078;47.822;9.402;2023-06-04T02:07:43;11.60;91.40
15959;DHT22;8078;47.822;9.402;2023-06-04T02:10:18;11.60;93.10
15959;DHT22;8078;47.822;9.402;2023-06-04T02:13:00;11.50;92.70
15959;DHT22;8078;47.822;9.402;2023-06-04T02:15:29;11.50;91.80
15959;DHT22;8078;47.822;9.402;2023-06-04T02:17:59;11.40;90.20
15959;DHT22;8078;47.822;9.402;2023-06-04T02:20:28;11.30;90.50
15959;DHT22;8078;47.822;9.402;2023-06-04T02:22:56;11.30;92.70
15959;DHT22;8078;47.822;9.402;2023-06-04T02:25:25;11.30;92.00
15959;DHT22;8078;47.822;9.402;2023-06-04T02:27:51;11.20;93.00
15959;DHT22;8078;47.822;9.402;2023-06-04T02:30:16;11.20;91.40
15959;DHT22;8078;47.822;9.402;2023-06-04T02:32:42;11.20;91.40
15959;DHT22;8078;47.822;9.402;2023-06-04T02:35:09;11.10;92.30
15959;DHT22;8078;47.822;9.402;2023-06-04T02:37:35;11.10;93.90
15959;DHT22;8078;47.822;9.402;2023-06-04T02:40:01;11.20;92.80
15959;DHT22;8078;47.822;9.402;2023-06-04T02:42:27;11.30;92.20
15959;DHT22;8078;47.822;9.402;2023-06-04T02:44:52;11.20;93.40
15959;DHT22;8078;47.822;9.402;2023-06-04T02:47:18;11.30;97.80
15959;DHT22;8078;47.822;9.402;2023-06-04T02:49:44;11.30;97.40
15959;DHT22;8078;47.822;9.402;2023-06-04T02:52:11;11.30;99.90
15959;DHT22;8078;47.822;9.402;2023-06-04T02:54:37;11.40;96.90
15959;DHT22;8078;47.822;9.402;2023-06-04T02:57:03;11.40;97.70
15959;DHT22;8078;47.822;9.402;2023-06-04T02:59:28;11.40;98.70
15959;DHT22;8078;47.822;9.402;2023-06-04T03:01:54;11.40;96.70
15959;DHT22;8078;47.822;9.402;2023-06-04T03:04:19;11.60;96.70
15959;DHT22;8078;47.822;9.402;2023-06-04T03:06:46;11.60;92.10
15959;DHT22;8078;47.822;9.402;2023-06-04T03:09:12;11.70;90.90
15959;DHT22;8078;47.822;9.402;2023-06-04T03:11:38;11.70;91.70
15959;DHT22;8078;47.822;9.402;2023-06-04T03:14:04;11.70;89.50
15959;DHT22;8078;47.822;9.402;2023-06-04T03:16:30;11.90;93.20
15959;DHT22;8078;47.822;9.402;2023-06-04T03:18:56;11.90;91.10
15959;DHT22;8078;47.822;9.402;2023-06-04T03:21:22;11.70;94.30
15959;DHT22;8078;47.822;9.402;2023-06-04T03:23:47;11.60;93.60
15959;DHT22;8078;47.822;9.402;2023-06-04T03:26:13;11.70;91.40
15959;DHT22;8078;47.822;9.402;2023-06-04T03:28:39;11.60;92.50
15959;DHT22;8078;47.822;9.402;2023-06-04T03:31:05;11.60;92.00
15959;DHT22;8078;47.822;9.402;2023-06-04T03:33:31;11.50;92.90
15959;DHT22;8078;47.822;9.402;2023-06-04T03:35:56;11.40;93.50
15959;DHT22;8078;47.822;9.402;2023-06-04T03:38:27;11.30;93.30
15959;DHT22;8078;47.822;9.402;2023-06-04T03:40:53;11.30;92.70
15959;DHT22;8078;47.822;9.402;2023-06-04T03:43:19;11.30;91.10
15959;DHT22;8078;47.822;9.402;2023-06-04T03:45:45;11.20;92.70
15959;DHT22;8078;47.822;9.402;2023-06-04T03:48:11;11.20;92.80
15959;DHT22;8078;47.822;9.402;2023-06-04T03:50:37;11.10;94.30
15959;DHT22;8078;47.822;9.402;2023-06-04T03:53:02;11.10;95.00
15959;DHT22;8078;47.822;9.402;2023-06-04T03:55:30;11.20;96.70
15959;DHT22;8078;47.822;9.402;2023-06-04T03:57:57;11.20;96.80
15959;DHT22;8078;47.822;9.402;2023-06-04T04:00:23;11.30;98.30
15959;DHT22;8078;47.822;9.402;2023-06-04T04:02:49;11.40;96.80
15959;DHT22;8078;47.822;9.402;2023-06-04T04:05:15;11.50;98.30
15959;DHT22;8078;47.822;9.402;2023-06-04T04:07:40;11.60;96.60
15959;DHT22;8078;47.822;9.402;2023-06-04T04:10:06;11.70;93.40
15959;DHT22;8078;47.822;9.402;2023-06-04T04:12:32;11.80;93.30
15959;DHT22;8078;47.822;9.402;2023-06-04T04:14:58;12.00;95.00
15959;DHT22;8078;47.822;9.402;2023-06-04T04:17:24;12.10;94.50
15959;DHT22;8078;47.822;9.402;2023-06-04T04:19:50;12.20;95.40
15959;DHT22;8078;47.822;9.402;2023-06-04T04:22:15;12.30;97.20
15959;DHT22;8078;47.822;9.402;2023-06-04T04:24:43;12.30;95.70
15959;DHT22;8078;47.822;9.402;2023-06-04T04:27:09;12.40;95.10
15959;DHT22;8078;47.822;9.402;2023-06-04T04:29:36;12.50;98.10
15959;DHT22;8078;47.822;9.402;2023-06-04T04:32:02;12.60;98.10
15959;DHT22;8078;47.822;9.402;2023-06-04T04:34:36;12.60;97.30
15959;DHT22;8078;47.822;9.402;2023-06-04T04:37:03;12.60;97.70
15959;DHT22;8078;47.822;9.402;2023-06-04T04:39:28;12.60;97.90
15959;DHT22;8078;47.822;9.402;2023-06-04T04:41:54;12.70;99.90
15959;DHT22;8078;47.822;9.402;2023-06-04T04:44:20;12.70;99.40
15959;DHT22;8078;47.822;9.402;2023-06-04T04:46:48;12.80;97.90
15959;DHT22;8078;47.822;9.402;2023-06-04T04:49:14;12.60;96.50
15959;DHT22;8078;47.822;9.402;2023-06-04T04:51:39;12.60;94.70
15959;DHT22;8078;47.822;9.402;2023-06-04T04:54:05;12.70;95.50
15959;DHT22;8078;47.822;9.402;2023-06-04T04:56:33;12.70;95.00
15959;DHT22;8078;47.822;9.402;2023-06-04T04:58:59;12.70;95.30
15959;DHT22;8078;47.822;9.402;2023-06-04T05:01:25;12.80;95.50
15959;DHT22;8078;47.822;9.402;2023-06-04T05:03:51;12.90;96.60
15959;DHT22;8078;47.822;9.402;2023-06-04T05:06:17;12.90;96.10
15959;DHT22;8078;47.822;9.402;2023-06-04T05:08:42;12.90;96.50
15959;DHT22;8078;47.822;9.402;2023-06-04T05:11:08;12.90;95.60
15959;DHT22;8078;47.822;9.402;2023-06-04T05:13:34;12.90;95.00
15959;DHT22;8078;47.822;9.402;2023-06-04T05:16:00;12.80;97.40
15959;DHT22;8078;47.822;9.402;2023-06-04T05:18:33;12.80;96.80
15959;DHT22;8078;47.822;9.402;2023-06-04T05:20:59;12.80;96.50
15959;DHT22;8078;47.822;9.402;2023-06-04T05:23:29;12.90;98.00
15959;DHT22;8078;47.822;9.402;2023-06-04T05:25:59;13.10;99.50
15959;DHT22;8078;47.822;9.402;2023-06-04T05:28:26;13.30;99.90
15959;DHT22;8078;47.822;9.402;2023-06-04T05:30:52;13.40;99.90
15959;DHT22;8078;47.822;9.402;2023-06-04T05:33:25;13.50;99.90
15959;DHT22;8078;47.822;9.402;2023-06-04T05:35:51;13.70;99.90
15959;DHT22;8078;47.822;9.402;2023-06-04T05:38:20;13.90;99.90
15959;DHT22;8078;47.822;9.402;2023-06-04T05:40:46;14.10;99.90
15959;DHT22;8078;47.822;9.402;2023-06-04T05:43:12;14.30;99.90
15959;DHT22;8078;47.822;9.402;2023-06-04T05:45:37;14.40;99.90
15959;DHT22;8078;47.822;9.402;2023-06-04T05:48:04;14.50;99.90
15959;DHT22;8078;47.822;9.402;2023-06-04T05:50:30;14.60;99.90
15959;DHT22;8078;47.822;9.402;2023-06-04T05:52:56;14.70;99.90
15959;DHT22;8078;47.822;9.402;2023-06-04T05:55:22;14.80;99.90
15959;DHT22;8078;47.822;9.402;2023-06-04T05:57:48;14.80;99.90
15959;DHT22;8078;47.822;9.402;2023-06-04T06:00:14;15.10;99.90
15959;DHT22;8078;47.822;9.402;2023-06-04T06:02:40;15.30;99.90
15959;DHT22;8078;47.822;9.402;2023-06-04T06:05:06;15.40;99.90
15959;DHT22;8078;47.822;9.402;2023-06-04T06:07:34;15.30;99.90
15959;DHT22;8078;47.822;9.402;2023-06-04T06:09:59;15.50;99.90
15959;DHT22;8078;47.822;9.402;2023-06-04T06:12:25;15.80;99.90
15959;DHT22;8078;47.822;9.402;2023-06-04T06:14:50;16.20;99.90
15959;DHT22;8078;47.822;9.402;2023-06-04T06:17:16;16.50;99.90
15959;DHT22;8078;47.822;9.402;2023-06-04T06:19:42;16.70;99.90
15959;DHT22;8078;47.822;9.402;2023-06-04T06:22:07;17.10;99.90
15959;DHT22;8078;47.822;9.402;2023-06-04T06:24:33;17.50;99.90
15959;DHT22;8078;47.822;9.402;2023-06-04T06:26:59;17.70;99.90
15959;DHT22;8078;47.822;9.402;2023-06-04T06:29:25;18.00;99.90
15959;DHT22;8078;47.822;9.402;2023-06-04T06:31:51;18.10;99.90
15959;DHT22;8078;47.822;9.402;2023-06-04T06:34:16;18.40;99.90
15959;DHT22;8078;47.822;9.402;2023-06-04T06:36:42;18.40;99.90
15959;DHT22;8078;47.822;9.402;2023-06-04T06:39:08;18.70;99.90
15959;DHT22;8078;47.822;9.402;2023-06-04T06:41:34;18.80;99.90
15959;DHT22;8078;47.822;9.402;2023-06-04T06:44:00;18.80;99.90
15959;DHT22;8078;47.822;9.402;2023-06-04T06:46:25;19.00;99.90
15959;DHT22;8078;47.822;9.402;2023-06-04T06:48:51;19.00;99.90
15959;DHT22;8078;47.822;9.402;2023-06-04T06:51:16;18.70;99.90
15959;DHT22;8078;47.822;9.402;2023-06-04T06:53:43;18.60;99.90
15959;DHT22;8078;47.822;9.402;2023-06-04T06:56:09;18.30;99.90
15959;DHT22;8078;47.822;9.402;2023-06-04T06:58:34;18.20;99.90
15959;DHT22;8078;47.822;9.402;2023-06-04T07:01:02;18.30;99.90
15959;DHT22;8078;47.822;9.402;2023-06-04T07:03:28;18.50;99.90
15959;DHT22;8078;47.822;9.402;2023-06-04T07:05:53;18.70;99.90
15959;DHT22;8078;47.822;9.402;2023-06-04T07:08:19;18.80;99.90
15959;DHT22;8078;47.822;9.402;2023-06-04T07:10:45;19.10;99.90
15959;DHT22;8078;47.822;9.402;2023-06-04T07:13:11;19.40;99.90
15959;DHT22;8078;47.822;9.402;2023-06-04T07:15:36;19.60;99.90
15959;DHT22;8078;47.822;9.402;2023-06-04T07:18:02;19.70;99.90
15959;DHT22;8078;47.822;9.402;2023-06-04T07:20:27;20.00;99.90
15959;DHT22;8078;47.822;9.402;2023-06-04T07:22:53;19.90;99.90
15959;DHT22;8078;47.822;9.402;2023-06-04T07:25:19;19.90;99.90
15959;DHT22;8078;47.822;9.402;2023-06-04T07:27:45;20.00;99.90
15959;DHT22;8078;47.822;9.402;2023-06-04T07:30:10;20.00;99.90
15959;DHT22;8078;47.822;9.402;2023-06-04T07:32:36;20.10;99.90
15959;DHT22;8078;47.822;9.402;2023-06-04T07:35:02;20.00;99.90
15959;DHT22;8078;47.822;9.402;2023-06-04T07:37:28;20.10;99.90
15959;DHT22;8078;47.822;9.402;2023-06-04T07:39:53;20.00;99.90
15959;DHT22;8078;47.822;9.402;2023-06-04T07:42:19;20.40;99.90
15959;DHT22;8078;47.822;9.402;2023-06-04T07:44:45;20.70;99.90
15959;DHT22;8078;47.822;9.402;2023-06-04T07:47:10;21.00;99.90
15959;DHT22;8078;47.822;9.402;2023-06-04T07:49:36;20.90;99.90
15959;DHT22;8078;47.822;9.402;2023-06-04T07:52:01;20.80;99.90
15959;DHT22;8078;47.822;9.402;2023-06-04T07:56:53;21.20;99.90
15959;DHT22;8078;47.822;9.402;2023-06-04T07:59:22;21.30;99.90
15959;DHT22;8078;47.822;9.402;2023-06-04T08:01:49;21.40;99.90
15959;DHT22;8078;47.822;9.402;2023-06-04T08:04:14;21.50;99.90
15959;DHT22;8078;47.822;9.402;2023-06-04T08:06:40;21.30;99.90
15959;DHT22;8078;47.822;9.402;2023-06-04T08:09:07;21.60;99.90
15959;DHT22;8078;47.822;9.402;2023-06-04T08:11:35;21.70;99.90
15959;DHT22;8078;47.822;9.402;2023-06-04T08:14:01;22.00;99.90
15959;DHT22;8078;47.822;9.402;2023-06-04T08:16:26;21.90;99.90
15959;DHT22;8078;47.822;9.402;2023-06-04T08:18:52;22.00;99.90
15959;DHT22;8078;47.822;9.402;2023-06-04T08:21:26;22.00;99.90
15959;DHT22;8078;47.822;9.402;2023-06-04T08:23:51;22.10;99.90
15959;DHT22;8078;47.822;9.402;2023-06-04T08:26:17;22.10;99.90
15959;DHT22;8078;47.822;9.402;2023-06-04T08:28:43;22.00;99.90
15959;DHT22;8078;47.822;9.402;2023-06-04T08:31:08;22.00;99.90
15959;DHT22;8078;47.822;9.402;2023-06-04T08:33:34;21.70;99.90
15959;DHT22;8078;47.822;9.402;2023-06-04T08:35:59;21.20;99.90
15959;DHT22;8078;47.822;9.402;2023-06-04T08:38:25;21.70;99.90
15959;DHT22;8078;47.822;9.402;2023-06-04T08:40:53;22.10;99.90
15959;DHT22;8078;47.822;9.402;2023-06-04T08:43:21;22.30;99.90
15959;DHT22;8078;47.822;9.402;2023-06-04T08:45:49;22.60;99.90
15959;DHT22;8078;47.822;9.402;2023-06-04T08:48:18;22.70;99.90
15959;DHT22;8078;47.822;9.402;2023-06-04T08:50:48;22.60;99.90
15959;DHT22;8078;47.822;9.402;2023-06-04T08:53:15;22.70;99.90
15959;DHT22;8078;47.822;9.402;2023-06-04T08:55:41;22.50;99.90
15959;DHT22;8078;47.822;9.402;2023-06-04T08:58:07;22.90;99.90
15959;DHT22;8078;47.822;9.402;2023-06-04T09:00:35;22.50;99.90
15959;DHT22;8078;47.822;9.402;2023-06-04T09:03:02;22.20;99.90
15959;DHT22;8078;47.822;9.402;2023-06-04T09:05:29;22.40;99.90
15959;DHT22;8078;47.822;9.402;2023-06-04T09:07:56;22.20;99.90
15959;DHT22;8078;47.822;9.402;2023-06-04T09:10:25;22.50;99.90
15959;DHT22;8078;47.822;9.402;2023-06-04T09:12:52;22.60;99.90
15959;DHT22;8078;47.822;9.402;2023-06-04T09:15:18;22.80;99.90
15959;DHT22;8078;47.822;9.402;2023-06-04T09:17:44;22.70;99.90
15959;DHT22;8078;47.822;9.402;2023-06-04T09:20:22;23.00;99.90
15959;DHT22;8078;47.822;9.402;2023-06-04T09:22:54;23.20;99.90
15959;DHT22;8078;47.822;9.402;2023-06-04T09:27:46;23.10;99.90
15959;DHT22;8078;47.822;9.402;2023-06-04T09:30:12;22.80;99.90
15959;DHT22;8078;47.822;9.402;2023-06-04T09:32:38;22.80;99.90
15959;DHT22;8078;47.822;9.402;2023-06-04T09:35:14;23.00;99.90
15959;DHT22;8078;47.822;9.402;2023-06-04T09:37:41;23.30;99.90
15959;DHT22;8078;47.822;9.402;2023-06-04T09:40:08;22.90;99.90
15959;DHT22;8078;47.822;9.402;2023-06-04T09:42:47;22.80;99.90
15959;DHT22;8078;47.822;9.402;2023-06-04T09:45:29;22.80;99.90
15959;DHT22;8078;47.822;9.402;2023-06-04T09:47:55;22.90;99.90
15959;DHT22;8078;47.822;9.402;2023-06-04T09:50:34;23.20;99.90
15959;DHT22;8078;47.822;9.402;2023-06-04T09:53:19;23.30;99.90
15959;DHT22;8078;47.822;9.402;2023-06-04T09:56:01;23.10;99.90
15959;DHT22;8078;47.822;9.402;2023-06-04T09:58:28;23.30;99.90
15959;DHT22;8078;47.822;9.402;2023-06-04T10:00:56;23.10;99.90
15959;DHT22;8078;47.822;9.402;2023-06-04T10:03:24;23.10;99.90
15959;DHT22;8078;47.822;9.402;2023-06-04T10:05:53;23.30;99.90
15959;DHT22;8078;47.822;9.402;2023-06-04T10:08:22;23.60;99.90
15959;DHT22;8078;47.822;9.402;2023-06-04T10:10:49;23.80;99.90
15959;DHT22;8078;47.822;9.402;2023-06-04T10:13:19;24.20;99.90
15959;DHT22;8078;47.822;9.402;2023-06-04T10:15:46;23.60;99.90
15959;DHT22;8078;47.822;9.402;2023-06-04T10:18:13;23.50;99.90
15959;DHT22;8078;47.822;9.402;2023-06-04T10:20:40;23.40;99.90
15959;DHT22;8078;47.822;9.402;2023-06-04T10:23:06;23.80;99.90
15959;DHT22;8078;47.822;9.402;2023-06-04T10:25:34;24.00;99.90
15959;DHT22;8078;47.822;9.402;2023-06-04T10:28:01;24.30;99.90
15959;DHT22;8078;47.822;9.402;2023-06-04T10:30:29;24.50;99.90
15959;DHT22;8078;47.822;9.402;2023-06-04T10:32:56;24.90;99.90
15959;DHT22;8078;47.822;9.402;2023-06-04T10:35:32;24.70;99.90
15959;DHT22;8078;47.822;9.402;2023-06-04T10:38:09;24.60;99.90
15959;DHT22;8078;47.822;9.402;2023-06-04T10:40:36;24.70;99.90
15959;DHT22;8078;47.822;9.402;2023-06-04T10:43:06;24.70;99.90
15959;DHT22;8078;47.822;9.402;2023-06-04T10:45:32;24.90;99.90
15959;DHT22;8078;47.822;9.402;2023-06-04T10:48:02;24.70;99.90
15959;DHT22;8078;47.822;9.402;2023-06-04T10:53:50;24.70;99.90
15959;DHT22;8078;47.822;9.402;2023-06-04T10:56:28;24.70;99.90
15959;DHT22;8078;47.822;9.402;2023-06-04T10:58:54;24.90;99.90
15959;DHT22;8078;47.822;9.402;2023-06-04T11:01:27;24.60;99.90
15959;DHT22;8078;47.822;9.402;2023-06-04T11:03:57;24.50;99.90
15959;DHT22;8078;47.822;9.402;2023-06-04T11:06:23;24.70;99.90
15959;DHT22;8078;47.822;9.402;2023-06-04T11:09:04;24.50;99.90
15959;DHT22;8078;47.822;9.402;2023-06-04T11:11:31;25.10;99.90
15959;DHT22;8078;47.822;9.402;2023-06-04T11:14:10;25.50;99.90
15959;DHT22;8078;47.822;9.402;2023-06-04T11:16:38;26.20;99.90
15959;DHT22;8078;47.822;9.402;2023-06-04T11:19:03;25.20;99.90
15959;DHT22;8078;47.822;9.402;2023-06-04T11:21:29;24.00;99.90
15959;DHT22;8078;47.822;9.402;2023-06-04T11:23:57;23.80;99.90
15959;DHT22;8078;47.822;9.402;2023-06-04T11:26:30;23.90;99.90
15959;DHT22;8078;47.822;9.402;2023-06-04T11:28:56;24.10;99.90
15959;DHT22;8078;47.822;9.402;2023-06-04T11:31:22;24.10;99.90
15959;DHT22;8078;47.822;9.402;2023-06-04T11:33:48;24.20;99.90
15959;DHT22;8078;47.822;9.402;2023-06-04T11:39:01;24.40;99.90
15959;DHT22;8078;47.822;9.402;2023-06-04T11:41:29;24.10;99.90
15959;DHT22;8078;47.822;9.402;2023-06-04T11:43:56;24.50;99.90
15959;DHT22;8078;47.822;9.402;2023-06-04T11:46:22;24.20;99.90
15959;DHT22;8078;47.822;9.402;2023-06-04T11:48:50;24.40;99.90
15959;DHT22;8078;47.822;9.402;2023-06-04T11:51:16;24.20;99.90
15959;DHT22;8078;47.822;9.402;2023-06-04T11:53:42;23.70;99.90
15959;DHT22;8078;47.822;9.402;2023-06-04T11:56:07;24.40;99.90
15959;DHT22;8078;47.822;9.402;2023-06-04T11:58:34;24.30;99.90
15959;DHT22;8078;47.822;9.402;2023-06-04T12:01:00;24.30;99.90
15959;DHT22;8078;47.822;9.402;2023-06-04T12:03:40;24.50;99.90
15959;DHT22;8078;47.822;9.402;2023-06-04T12:06:16;24.90;99.90
15959;DHT22;8078;47.822;9.402;2023-06-04T12:08:52;24.60;99.90
15959;DHT22;8078;47.822;9.402;2023-06-04T12:11:34;25.20;99.90
15959;DHT22;8078;47.822;9.402;2023-06-04T12:14:04;24.70;99.90
15959;DHT22;8078;47.822;9.402;2023-06-04T12:16:30;25.00;99.90
15959;DHT22;8078;47.822;9.402;2023-06-04T12:19:09;25.30;99.90
15959;DHT22;8078;47.822;9.402;2023-06-04T12:21:35;25.80;99.90
15959;DHT22;8078;47.822;9.402;2023-06-04T12:24:12;25.80;99.90
15959;DHT22;8078;47.822;9.402;2023-06-04T12:26:39;26.10;99.90
15959;DHT22;8078;47.822;9.402;2023-06-04T12:29:17;26.30;99.90
15959;DHT22;8078;47.822;9.402;2023-06-04T12:31:44;26.10;99.90
15959;DHT22;8078;47.822;9.402;2023-06-04T12:34:11;26.10;99.90
15959;DHT22;8078;47.822;9.402;2023-06-04T12:36:37;26.60;99.90
15959;DHT22;8078;47.822;9.402;2023-06-04T12:39:04;26.00;99.90
15959;DHT22;8078;47.822;9.402;2023-06-04T12:41:31;26.10;99.90
15959;DHT22;8078;47.822;9.402;2023-06-04T12:43:59;25.70;99.90
15959;DHT22;8078;47.822;9.402;2023-06-04T12:46:25;25.90;99.90
15959;DHT22;8078;47.822;9.402;2023-06-04T12:48:52;25.70;99.90
15959;DHT22;8078;47.822;9.402;2023-06-04T12:51:18;25.40;99.90
15959;DHT22;8078;47.822;9.402;2023-06-04T12:53:44;25.40;99.90
15959;DHT22;8078;47.822;9.402;2023-06-04T12:56:10;25.70;99.90
15959;DHT22;8078;47.822;9.402;2023-06-04T12:58:36;26.30;99.90
15959;DHT22;8078;47.822;9.402;2023-06-04T13:01:02;27.00;99.90
15959;DHT22;8078;47.822;9.402;2023-06-04T13:03:29;26.20;99.90
15959;DHT22;8078;47.822;9.402;2023-06-04T13:05:54;25.70;99.90
15959;DHT22;8078;47.822;9.402;2023-06-04T13:08:20;26.50;99.90
15959;DHT22;8078;47.822;9.402;2023-06-04T13:10:47;26.60;99.90
15959;DHT22;8078;47.822;9.402;2023-06-04T13:13:13;26.40;99.90
15959;DHT22;8078;47.822;9.402;2023-06-04T13:15:40;26.80;99.90
15959;DHT22;8078;47.822;9.402;2023-06-04T13:18:05;26.10;99.90
15959;DHT22;8078;47.822;9.402;2023-06-04T13:20:31;25.00;99.90
15959;DHT22;8078;47.822;9.402;2023-06-04T13:22:56;24.90;99.90
15959;DHT22;8078;47.822;9.402;2023-06-04T13:25:22;25.60;99.90
15959;DHT22;8078;47.822;9.402;2023-06-04T13:27:49;26.30;99.90
15959;DHT22;8078;47.822;9.402;2023-06-04T13:30:14;28.20;99.90
15959;DHT22;8078;47.822;9.402;2023-06-04T13:32:40;28.50;99.90
15959;DHT22;8078;47.822;9.402;2023-06-04T13:35:06;28.90;99.90
15959;DHT22;8078;47.822;9.402;2023-06-04T13:37:32;28.10;99.90
15959;DHT22;8078;47.822;9.402;2023-06-04T13:39:57;26.60;99.90
15959;DHT22;8078;47.822;9.402;2023-06-04T13:42:23;25.50;99.90
15959;DHT22;8078;47.822;9.402;2023-06-04T13:44:48;24.60;99.90
15959;DHT22;8078;47.822;9.402;2023-06-04T13:47:14;25.10;99.90
15959;DHT22;8078;47.822;9.402;2023-06-04T13:49:39;26.00;99.90
15959;DHT22;8078;47.822;9.402;2023-06-04T13:52:05;26.50;99.90
15959;DHT22;8078;47.822;9.402;2023-06-04T13:54:30;26.40;99.90
15959;DHT22;8078;47.822;9.402;2023-06-04T13:56:56;26.70;99.90
15959;DHT22;8078;47.822;9.402;2023-06-04T13:59:22;27.00;99.90
15959;DHT22;8078;47.822;9.402;2023-06-04T14:01:48;27.30;99.90
15959;DHT22;8078;47.822;9.402;2023-06-04T14:04:13;27.30;99.90
15959;DHT22;8078;47.822;9.402;2023-06-04T14:06:39;27.50;99.90
15959;DHT22;8078;47.822;9.402;2023-06-04T14:09:04;27.00;99.90
15959;DHT22;8078;47.822;9.402;2023-06-04T14:11:34;27.10;99.90
15959;DHT22;8078;47.822;9.402;2023-06-04T14:14:00;27.60;99.90
15959;DHT22;8078;47.822;9.402;2023-06-04T14:16:26;27.50;99.90
15959;DHT22;8078;47.822;9.402;2023-06-04T14:18:51;26.80;99.90
15959;DHT22;8078;47.822;9.402;2023-06-04T14:21:17;26.70;99.90
15959;DHT22;8078;47.822;9.402;2023-06-04T14:23:42;26.80;99.90
15959;DHT22;8078;47.822;9.402;2023-06-04T14:26:08;26.20;99.90
15959;DHT22;8078;47.822;9.402;2023-06-04T14:28:34;26.50;99.90
15959;DHT22;8078;47.822;9.402;2023-06-04T14:31:00;26.80;99.90
15959;DHT22;8078;47.822;9.402;2023-06-04T14:33:25;27.20;99.90
15959;DHT22;8078;47.822;9.402;2023-06-04T14:35:51;27.50;99.90
15959;DHT22;8078;47.822;9.402;2023-06-04T14:38:17;27.60;99.90
15959;DHT22;8078;47.822;9.402;2023-06-04T14:40:42;27.00;99.90
15959;DHT22;8078;47.822;9.402;2023-06-04T14:43:11;26.80;99.90
15959;DHT22;8078;47.822;9.402;2023-06-04T14:45:37;26.10;99.90
15959;DHT22;8078;47.822;9.402;2023-06-04T14:48:05;26.20;99.90
15959;DHT22;8078;47.822;9.402;2023-06-04T14:50:31;26.80;99.90
15959;DHT22;8078;47.822;9.402;2023-06-04T14:52:56;27.40;99.90
15959;DHT22;8078;47.822;9.402;2023-06-04T14:55:24;27.60;99.90
15959;DHT22;8078;47.822;9.402;2023-06-04T14:57:50;28.50;99.90
15959;DHT22;8078;47.822;9.402;2023-06-04T15:00:16;29.00;99.90
15959;DHT22;8078;47.822;9.402;2023-06-04T15:02:41;29.20;99.90
15959;DHT22;8078;47.822;9.402;2023-06-04T15:05:07;29.60;99.90
15959;DHT22;8078;47.822;9.402;2023-06-04T15:07:33;29.00;99.90
15959;DHT22;8078;47.822;9.402;2023-06-04T15:09:59;28.40;99.90
15959;DHT22;8078;47.822;9.402;2023-06-04T15:12:24;27.80;99.90
15959;DHT22;8078;47.822;9.402;2023-06-04T15:14:50;28.20;99.90
15959;DHT22;8078;47.822;9.402;2023-06-04T15:17:15;26.60;99.90
15959;DHT22;8078;47.822;9.402;2023-06-04T15:19:41;27.60;99.90
15959;DHT22;8078;47.822;9.402;2023-06-04T15:22:07;28.20;99.90
15959;DHT22;8078;47.822;9.402;2023-06-04T15:24:33;28.90;99.90
15959;DHT22;8078;47.822;9.402;2023-06-04T15:26:59;28.60;99.90
15959;DHT22;8078;47.822;9.402;2023-06-04T15:29:25;28.80;99.90
15959;DHT22;8078;47.822;9.402;2023-06-04T15:31:51;28.90;99.90
15959;DHT22;8078;47.822;9.402;2023-06-04T15:34:17;27.00;99.90
15959;DHT22;8078;47.822;9.402;2023-06-04T15:36:44;25.80;99.90
15959;DHT22;8078;47.822;9.402;2023-06-04T15:39:09;25.20;99.90
15959;DHT22;8078;47.822;9.402;2023-06-04T15:41:35;24.70;99.90
15959;DHT22;8078;47.822;9.402;2023-06-04T15:44:00;24.80;99.90
15959;DHT22;8078;47.822;9.402;2023-06-04T15:46:26;25.00;99.90
15959;DHT22;8078;47.822;9.402;2023-06-04T15:48:51;24.40;99.90
15959;DHT22;8078;47.822;9.402;2023-06-04T15:51:17;24.40;99.90
15959;DHT22;8078;47.822;9.402;2023-06-04T15:53:43;25.00;99.90
15959;DHT22;8078;47.822;9.402;2023-06-04T15:56:09;25.50;99.90
15959;DHT22;8078;47.822;9.402;2023-06-04T15:58:34;26.20;99.90
15959;DHT22;8078;47.822;9.402;2023-06-04T16:01:00;26.90;99.90